Time;durP1;ratioP1;P1;durP2;ratioP2;P2;SDS_P1;SDS_P2;PMS_P1;PMS_P2;Temp;Humidity;BMP_temperature;BMP_pressure;BME280_temperature;BME280_humidity;BME280_pressure;Samples;Min_cycle;Max_cycle;Signal;HPM_P1;HPM_P2
2022/10/20 00:00:25;;;;;;;20.50;7.70;;;14.20;99.90;;;;;;6225895;28;20061;-83
2022/10/20 00:03:28;;;;;;;11.98;6.93;;;14.20;99.90;;;;;;6226141;28;20415;-84
2022/10/20 00:06:32;;;;;;;17.80;7.72;;;14.20;99.90;;;;;;6226512;28;20057;-83
2022/10/20 00:09:33;;;;;;;20.08;7.88;;;14.20;99.90;;;;;;6225157;28;20046;-83
2022/10/20 00:12:36;;;;;;;16.17;7.43;;;14.20;99.90;;;;;;6226413;28;20054;-86
2022/10/20 00:15:38;;;;;;;13.57;7.25;;;14.20;99.90;;;;;;6227300;28;20045;-84
2022/10/20 00:18:40;;;;;;;15.10;8.07;;;14.10;99.90;;;;;;6226925;28;20061;-83
2022/10/20 00:21:42;;;;;;;16.90;7.03;;;14.10;99.90;;;;;;6227105;28;20419;-84
2022/10/20 00:24:43;;;;;;;12.50;7.13;;;14.10;99.90;;;;;;6226867;28;20058;-83
2022/10/20 00:27:46;;;;;;;19.38;6.63;;;14.00;99.90;;;;;;6227074;28;20050;-83
2022/10/20 00:30:53;;;;;;;18.73;7.85;;;13.90;99.90;;;;;;6227761;28;20053;-85
2022/10/20 00:33:55;;;;;;;19.70;7.50;;;13.80;99.90;;;;;;6226781;28;20504;-84
2022/10/20 00:36:57;;;;;;;21.25;8.07;;;13.80;99.90;;;;;;6227019;28;20507;-83
2022/10/20 00:39:58;;;;;;;15.98;8.25;;;13.70;99.90;;;;;;6225967;28;20057;-84
2022/10/20 00:43:01;;;;;;;27.30;8.30;;;13.60;99.90;;;;;;6226918;28;20050;-85
2022/10/20 00:46:03;;;;;;;16.48;8.18;;;13.50;99.90;;;;;;6226814;28;20061;-83
2022/10/20 00:49:13;;;;;;;14.85;6.80;;;13.50;99.90;;;;;;6226578;28;20046;-85
2022/10/20 00:52:17;;;;;;;12.40;6.93;;;13.40;99.90;;;;;;6226869;28;20053;-84
2022/10/20 00:55:23;;;;;;;14.38;7.55;;;13.40;99.90;;;;;;6226635;28;20424;-84
2022/10/20 00:58:27;;;;;;;16.05;7.05;;;13.30;99.90;;;;;;6226515;28;20053;-84
2022/10/20 01:01:29;;;;;;;20.70;7.45;;;13.30;99.90;;;;;;6226472;28;20049;-85
2022/10/20 01:04:33;;;;;;;15.05;7.38;;;13.30;99.90;;;;;;6226689;28;20057;-84
2022/10/20 01:07:34;;;;;;;18.77;7.40;;;13.30;99.90;;;;;;6228078;28;20048;-84
2022/10/20 01:10:48;;;;;;;20.35;7.55;;;13.30;99.90;;;;;;6229373;28;20060;-84
2022/10/20 01:14:02;;;;;;;17.00;7.40;;;13.20;99.90;;;;;;6229150;28;20061;-84
2022/10/20 01:17:12;;;;;;;16.77;7.28;;;13.10;99.90;;;;;;6241380;23;20047;-85
2022/10/20 01:21:03;;;;;;;11.02;6.65;;;13.10;99.90;;;;;;6202769;28;20061;-85
2022/10/20 01:28:19;;;;;;;13.10;6.85;;;13.00;99.90;;;;;;6210978;28;20050;-85
2022/10/20 01:31:29;;;;;;;16.77;6.78;;;13.00;99.90;;;;;;6226553;28;20034;-85
2022/10/20 01:34:38;;;;;;;17.67;7.78;;;13.30;99.90;;;;;;6209438;28;20499;-88
2022/10/20 01:37:42;;;;;;;;;;;12.90;99.90;;;;;;6200552;28;20424;-86
2022/10/20 01:40:48;;;;;;;15.45;7.65;;;13.00;99.90;;;;;;6199683;28;19976;-88
2022/10/20 01:43:53;;;;;;;19.08;8.25;;;12.90;99.90;;;;;;6199517;28;20472;-88
2022/10/20 01:46:56;;;;;;;25.60;8.48;;;12.90;99.90;;;;;;6201500;28;20186;-88
2022/10/20 01:49:58;;;;;;;17.98;7.10;;;12.90;99.90;;;;;;6199815;28;20053;-88
2022/10/20 01:53:01;;;;;;;16.85;6.82;;;12.80;99.90;;;;;;6199613;28;20069;-87
2022/10/20 01:56:04;;;;;;;16.10;7.72;;;12.90;99.90;;;;;;6199198;28;20060;-88
2022/10/20 01:59:24;;;;;;;14.70;7.70;;;12.90;99.90;;;;;;6200847;28;20047;-87
2022/10/20 02:02:54;;;;;;;15.27;7.22;;;12.90;99.90;;;;;;6200477;28;20066;-86
2022/10/20 02:06:11;;;;;;;13.98;6.95;;;12.90;99.90;;;;;;6202621;28;20049;-87
2022/10/20 02:09:16;;;;;;;26.48;8.88;;;13.20;99.90;;;;;;6203498;28;20061;-86
2022/10/20 02:12:24;;;;;;;16.38;7.43;;;13.00;99.90;;;;;;6204865;28;20046;-86
2022/10/20 02:15:30;;;;;;;17.77;8.98;;;13.10;99.90;;;;;;6207664;28;20042;-86
2022/10/20 02:18:36;;;;;;;18.90;8.52;;;13.00;99.90;;;;;;6207854;28;20511;-85
2022/10/20 02:21:38;;;;;;;16.65;8.90;;;13.00;99.90;;;;;;6205173;28;20047;-87
2022/10/20 02:24:41;;;;;;;25.52;9.07;;;13.00;99.90;;;;;;6205097;28;20129;-85
2022/10/20 02:27:47;;;;;;;27.40;9.88;;;13.60;99.90;;;;;;6205377;28;20051;-85
2022/10/20 02:30:51;;;;;;;15.80;8.38;;;13.00;99.90;;;;;;6207793;28;20046;-87
2022/10/20 02:33:54;;;;;;;20.10;8.75;;;13.00;99.90;;;;;;6205835;28;20053;-87
2022/10/20 02:36:57;;;;;;;21.27;7.68;;;13.30;99.90;;;;;;6204399;28;20512;-86
2022/10/20 02:39:59;;;;;;;21.92;7.97;;;13.00;99.90;;;;;;6204750;28;20050;-86
2022/10/20 02:43:01;;;;;;;24.00;8.55;;;13.00;99.90;;;;;;6205569;28;20050;-86
2022/10/20 02:46:04;;;;;;;11.52;6.80;;;13.40;99.90;;;;;;6206188;28;20050;-85
2022/10/20 02:49:06;;;;;;;24.02;8.10;;;13.00;99.90;;;;;;6203986;28;20042;-85
2022/10/20 02:52:08;;;;;;;16.75;7.47;;;13.10;99.90;;;;;;6204453;28;20042;-84
2022/10/20 02:55:10;;;;;;;20.75;7.07;;;13.00;99.90;;;;;;6205251;28;20511;-86
2022/10/20 02:58:11;;;;;;;18.45;7.95;;;12.90;99.90;;;;;;6204562;28;20157;-86
2022/10/20 03:01:14;;;;;;;17.80;7.90;;;13.00;99.90;;;;;;6205651;28;20050;-86
2022/10/20 03:04:16;;;;;;;17.15;7.88;;;13.30;99.90;;;;;;6205024;28;20057;-86
2022/10/20 03:07:19;;;;;;;19.42;7.78;;;13.00;99.90;;;;;;6204400;28;20046;-85
2022/10/20 03:10:21;;;;;;;22.02;7.75;;;13.10;99.90;;;;;;6206302;28;20055;-87
2022/10/20 03:13:22;;;;;;;21.20;9.35;;;13.10;99.90;;;;;;6206750;28;20434;-86
2022/10/20 03:16:26;;;;;;;16.98;7.32;;;13.20;99.90;;;;;;6204481;28;20050;-86
2022/10/20 03:19:27;;;;;;;20.63;8.25;;;13.30;99.90;;;;;;6205109;28;20061;-86
2022/10/20 03:22:29;;;;;;;19.70;8.65;;;13.30;99.90;;;;;;6206801;28;20065;-86
2022/10/20 03:25:32;;;;;;;21.15;8.00;;;13.30;99.90;;;;;;6205124;28;20052;-86
2022/10/20 03:28:34;;;;;;;21.50;8.52;;;13.50;99.90;;;;;;6205380;28;20054;-87
2022/10/20 03:31:37;;;;;;;20.05;8.15;;;13.40;99.90;;;;;;6205108;28;20046;-85
2022/10/20 03:34:39;;;;;;;16.55;7.82;;;14.10;99.90;;;;;;6205045;28;20050;-87
2022/10/20 03:37:40;;;;;;;17.90;7.38;;;13.40;99.90;;;;;;6204445;28;20125;-85
2022/10/20 03:40:42;;;;;;;17.02;8.55;;;13.40;99.90;;;;;;6205578;28;20064;-84
2022/10/20 03:43:44;;;;;;;13.43;7.45;;;13.30;99.90;;;;;;6204315;28;20420;-86
2022/10/20 03:46:47;;;;;;;12.65;7.38;;;13.30;99.90;;;;;;6205111;28;20042;-85
2022/10/20 03:49:48;;;;;;;14.43;7.57;;;14.10;99.90;;;;;;6205424;28;20057;-85
2022/10/20 03:52:50;;;;;;;16.25;7.10;;;13.30;99.90;;;;;;6201347;28;20053;-86
2022/10/20 03:55:52;;;;;;;16.27;6.88;;;13.30;99.90;;;;;;6200837;28;20057;-84
2022/10/20 03:58:54;;;;;;;14.38;6.95;;;13.30;99.90;;;;;;6200865;28;20050;-86
2022/10/20 04:01:57;;;;;;;14.57;6.30;;;13.20;99.90;;;;;;6200920;28;20042;-84
2022/10/20 04:04:59;;;;;;;22.20;7.20;;;13.20;99.90;;;;;;6200393;28;20046;-86
2022/10/20 04:08:00;;;;;;;25.90;7.97;;;13.40;99.90;;;;;;6200547;28;20619;-85
2022/10/20 04:11:02;;;;;;;24.58;7.78;;;12.90;99.90;;;;;;6202280;28;20057;-86
2022/10/20 04:14:04;;;;;;;12.98;7.20;;;13.00;99.90;;;;;;6201685;28;20057;-88
2022/10/20 04:17:07;;;;;;;23.65;6.55;;;13.50;99.90;;;;;;6199573;28;20077;-87
2022/10/20 04:20:09;;;;;;;12.63;6.28;;;13.00;99.90;;;;;;6199518;28;20042;-88
2022/10/20 04:23:11;;;;;;;19.77;6.90;;;13.00;99.90;;;;;;6199915;28;20440;-87
2022/10/20 04:26:15;;;;;;;18.33;7.28;;;13.50;99.90;;;;;;6200875;28;20584;-88
2022/10/20 04:29:17;;;;;;;20.52;7.18;;;13.10;99.90;;;;;;6199406;28;20066;-86
2022/10/20 04:32:20;;;;;;;13.20;6.53;;;13.10;99.90;;;;;;6199319;28;20050;-87
2022/10/20 04:35:22;;;;;;;21.30;7.72;;;13.10;99.90;;;;;;6200707;28;20046;-86
2022/10/20 04:39:10;;;;;;;15.63;7.43;;;13.10;99.90;;;;;;6202386;28;20050;-88
2022/10/20 04:43:01;;;;;;;22.63;6.55;;;13.00;99.90;;;;;;6196860;28;20519;-86
2022/10/20 04:46:03;;;;;;;13.57;6.95;;;12.90;99.90;;;;;;6197217;28;20046;-87
2022/10/20 04:49:06;;;;;;;11.80;6.35;;;13.20;99.90;;;;;;6202650;28;20042;-86
2022/10/20 04:52:08;;;;;;;21.45;8.73;;;12.90;99.90;;;;;;6202151;28;20046;-87
2022/10/20 04:55:10;;;;;;;17.55;7.22;;;12.80;99.90;;;;;;6199597;28;20053;-87
2022/10/20 04:58:12;;;;;;;15.32;6.40;;;12.80;99.90;;;;;;6199161;28;20050;-87
2022/10/20 05:01:13;;;;;;;18.67;6.95;;;13.10;99.90;;;;;;6199597;28;20157;-87
2022/10/20 05:04:20;;;;;;;12.68;6.55;;;12.80;99.90;;;;;;6199917;28;20181;-87
2022/10/20 05:07:21;;;;;;;15.35;6.78;;;12.70;99.90;;;;;;6199851;28;20110;-87
2022/10/20 05:10:23;;;;;;;12.93;6.78;;;12.80;99.90;;;;;;6200159;28;20042;-86
2022/10/20 05:13:25;;;;;;;18.35;7.15;;;13.10;99.90;;;;;;6200028;28;20046;-87
2022/10/20 05:19:44;;;;;;;15.90;6.13;;;12.60;99.90;;;;;;6225217;28;20142;-86
2022/10/20 05:22:46;;;;;;;13.38;6.90;;;12.50;99.90;;;;;;6206374;28;20046;-86
2022/10/20 05:25:47;;;;;;;23.60;6.53;;;12.50;99.90;;;;;;6201522;28;20556;-88
2022/10/20 05:28:51;;;;;;;11.50;6.15;;;12.60;99.90;;;;;;6200514;28;20500;-87
2022/10/20 05:31:52;;;;;;;18.17;6.63;;;12.60;99.90;;;;;;6201059;28;20057;-86
2022/10/20 05:34:55;;;;;;;16.92;6.82;;;12.70;99.90;;;;;;6201365;28;20054;-86
2022/10/20 05:37:57;;;;;;;23.27;6.50;;;12.70;99.90;;;;;;6199945;28;20038;-86
2022/10/20 05:41:05;;;;;;;9.70;5.88;;;12.70;99.90;;;;;;6200052;28;20058;-86
2022/10/20 05:44:08;;;;;;;;;;;12.70;99.90;;;;;;6203153;28;20452;-85
2022/10/20 05:47:10;;;;;;;35.90;7.80;;;12.80;99.90;;;;;;6206164;28;19921;-87
2022/10/20 05:50:13;;;;;;;13.02;6.60;;;12.70;99.90;;;;;;6211157;28;20416;-90
2022/10/20 05:53:14;;;;;;;16.38;6.78;;;12.70;99.90;;;;;;6212031;28;20062;-87
2022/10/20 05:56:18;;;;;;;15.63;6.82;;;12.70;99.90;;;;;;6213235;28;20046;-85
2022/10/20 05:59:20;;;;;;;16.33;6.68;;;12.70;99.90;;;;;;6212641;28;20053;-86
2022/10/20 06:02:22;;;;;;;15.18;7.63;;;12.60;99.90;;;;;;6212437;28;20051;-86
2022/10/20 06:05:25;;;;;;;21.30;8.38;;;13.00;99.90;;;;;;6210744;28;20050;-86
2022/10/20 06:08:30;;;;;;;18.58;7.13;;;12.60;99.90;;;;;;6208271;28;20054;-86
2022/10/20 06:11:31;;;;;;;26.92;7.40;;;13.20;99.90;;;;;;6206516;28;20054;-87
2022/10/20 06:14:33;;;;;;;21.00;6.78;;;12.70;99.90;;;;;;6205193;28;20424;-86
2022/10/20 06:17:35;;;;;;;18.95;6.35;;;12.70;99.90;;;;;;6203839;28;20054;-86
2022/10/20 06:20:38;;;;;;;12.15;6.55;;;12.70;99.90;;;;;;6204257;28;20539;-85
2022/10/20 06:23:40;;;;;;;15.82;6.38;;;12.70;99.90;;;;;;6204099;28;20050;-86
2022/10/20 06:26:43;;;;;;;18.30;7.13;;;12.70;99.90;;;;;;6203559;28;20401;-86
2022/10/20 06:29:44;;;;;;;15.18;5.78;;;12.80;99.90;;;;;;6205608;28;20050;-84
2022/10/20 06:32:46;;;;;;;16.75;6.35;;;12.90;99.90;;;;;;6206006;28;20050;-86
2022/10/20 06:35:49;;;;;;;11.50;5.22;;;12.90;99.90;;;;;;6205019;28;20412;-87
2022/10/20 06:38:53;;;;;;;15.48;6.50;;;13.00;99.90;;;;;;6205484;28;20047;-87
2022/10/20 06:41:55;;;;;;;15.00;6.72;;;13.50;99.90;;;;;;6203963;28;20104;-85
2022/10/20 06:44:57;;;;;;;19.35;6.35;;;13.50;99.90;;;;;;6204552;28;20050;-86
2022/10/20 06:47:59;;;;;;;12.93;6.68;;;13.10;99.90;;;;;;6204812;28;20108;-88
2022/10/20 06:51:04;;;;;;;15.00;6.15;;;13.30;99.90;;;;;;6206495;28;20051;-88
2022/10/20 06:54:06;;;;;;;13.65;5.80;;;13.80;99.90;;;;;;6202184;28;20058;-89
2022/10/20 06:57:08;;;;;;;16.95;8.20;;;13.50;99.90;;;;;;6201822;28;20424;-89
2022/10/20 07:00:11;;;;;;;16.35;7.13;;;13.60;99.90;;;;;;6201390;28;20052;-89
2022/10/20 07:03:13;;;;;;;19.52;7.28;;;13.60;99.90;;;;;;6202289;28;20050;-91
2022/10/20 07:06:18;;;;;;;15.02;6.82;;;13.70;99.90;;;;;;6202697;28;20057;-87
2022/10/20 07:09:20;;;;;;;16.52;6.90;;;13.80;99.90;;;;;;6201185;28;20042;-87
2022/10/20 07:12:22;;;;;;;11.55;6.55;;;14.50;99.90;;;;;;6201198;28;20046;-88
2022/10/20 07:15:23;;;;;;;25.83;6.18;;;14.10;99.90;;;;;;6202072;28;20061;-90
2022/10/20 07:18:26;;;;;;;19.38;6.90;;;14.30;99.90;;;;;;6220303;22;20046;-85
2022/10/20 07:21:30;;;;;;;13.75;6.15;;;14.60;99.90;;;;;;6201388;28;20057;-85
2022/10/20 07:24:32;;;;;;;11.93;5.95;;;14.70;99.90;;;;;;6200347;28;20049;-85
2022/10/20 07:27:34;;;;;;;12.32;6.25;;;14.80;99.90;;;;;;6200280;28;20785;-85
2022/10/20 07:30:38;;;;;;;14.35;6.45;;;15.00;99.90;;;;;;6201806;28;20136;-85
2022/10/20 07:33:40;;;;;;;18.15;6.15;;;15.20;99.90;;;;;;6200266;28;20049;-84
2022/10/20 07:36:44;;;;;;;16.88;6.65;;;15.30;99.90;;;;;;6202903;28;20057;-84
2022/10/20 07:39:46;;;;;;;13.30;5.55;;;15.40;99.90;;;;;;6214774;28;20047;-84
2022/10/20 07:42:48;;;;;;;12.30;6.65;;;15.60;99.90;;;;;;6203628;28;20069;-84
2022/10/20 07:45:49;;;;;;;13.35;5.40;;;15.90;99.90;;;;;;6156367;28;20058;-84
2022/10/20 07:48:51;;;;;;;12.68;5.90;;;16.00;99.90;;;;;;6213780;28;20522;-84
2022/10/20 07:51:54;;;;;;;12.82;6.30;;;16.20;99.90;;;;;;6204638;28;20046;-83
2022/10/20 07:54:56;;;;;;;9.73;6.05;;;16.50;99.90;;;;;;6213992;28;20057;-84
2022/10/20 07:57:57;;;;;;;10.68;5.90;;;16.70;99.90;;;;;;6201037;28;20659;-84
2022/10/20 08:00:59;;;;;;;11.10;6.05;;;17.00;99.90;;;;;;6200970;28;20050;-84
2022/10/20 08:04:01;;;;;;;9.10;5.38;;;17.30;99.90;;;;;;6200849;28;20050;-84
2022/10/20 08:07:04;;;;;;;7.32;4.78;;;17.70;99.90;;;;;;6201477;28;20042;-84
2022/10/20 08:10:07;;;;;;;14.27;6.55;;;17.80;99.90;;;;;;6199831;28;20046;-84
2022/10/20 08:13:08;;;;;;;9.65;4.88;;;18.30;99.90;;;;;;6199724;28;20076;-84
2022/10/20 08:16:13;;;;;;;13.77;6.15;;;18.60;99.90;;;;;;6200870;28;20686;-84
2022/10/20 08:19:15;;;;;;;12.73;5.70;;;18.80;99.90;;;;;;6203604;28;20050;-85
2022/10/20 08:22:18;;;;;;;10.02;4.97;;;19.20;99.90;;;;;;6217503;28;20518;-85
2022/10/20 08:25:20;;;;;;;11.43;5.80;;;19.40;99.90;;;;;;6224668;28;20046;-85
2022/10/20 08:28:22;;;;;;;11.18;6.45;;;19.60;99.90;;;;;;6224143;28;20053;-85
2022/10/20 08:31:24;;;;;;;17.95;5.90;;;19.90;99.90;;;;;;6224162;28;20054;-84
2022/10/20 08:34:26;;;;;;;9.07;5.28;;;20.10;99.90;;;;;;6224389;28;20061;-85
2022/10/20 08:37:31;;;;;;;11.20;4.97;;;20.40;99.80;;;;;;6223658;28;20042;-85
2022/10/20 08:40:37;;;;;;;11.05;5.15;;;20.40;99.10;;;;;;6223478;28;20424;-84
2022/10/20 08:43:41;;;;;;;11.35;5.35;;;20.40;98.70;;;;;;6223680;28;20049;-85
2022/10/20 08:46:43;;;;;;;14.98;6.60;;;20.30;98.50;;;;;;6224057;28;20045;-85
2022/10/20 08:49:45;;;;;;;9.27;4.72;;;20.30;98.40;;;;;;6219734;28;20065;-84
2022/10/20 08:52:53;;;;;;;17.30;4.68;;;20.30;98.00;;;;;;6206781;28;20069;-84
2022/10/20 08:55:56;;;;;;;9.05;4.90;;;20.40;98.00;;;;;;6200576;28;20466;-84
2022/10/20 08:58:57;;;;;;;13.75;5.57;;;20.80;97.60;;;;;;6199062;28;20061;-84
2022/10/20 09:02:00;;;;;;;11.55;5.13;;;21.20;97.10;;;;;;6198901;28;20074;-85
2022/10/20 09:05:04;;;;;;;14.85;6.40;;;21.40;96.20;;;;;;6199047;28;20542;-85
2022/10/20 09:08:07;;;;;;;12.00;6.25;;;21.20;95.80;;;;;;6198392;28;20046;-85
2022/10/20 09:11:16;;;;;;;9.40;5.13;;;20.90;95.60;;;;;;6202377;28;20096;-86
2022/10/20 09:14:17;;;;;;;8.35;4.60;;;20.60;95.70;;;;;;6223653;28;20050;-84
2022/10/20 09:17:19;;;;;;;16.55;5.47;;;20.50;95.60;;;;;;6222922;28;20053;-84
2022/10/20 09:20:25;;;;;;;10.95;6.10;;;20.20;95.70;;;;;;6219350;28;20042;-84
2022/10/20 09:23:36;;;;;;;29.38;9.13;;;20.10;95.90;;;;;;6226747;28;20046;-84
2022/10/20 09:26:43;;;;;;;13.45;6.28;;;19.80;95.80;;;;;;6231447;28;20419;-84
2022/10/20 09:29:45;;;;;;;13.60;6.57;;;19.60;95.90;;;;;;6229206;28;20050;-84
2022/10/20 09:32:47;;;;;;;13.98;5.25;;;19.50;96.20;;;;;;6229826;28;20058;-83
2022/10/20 09:35:50;;;;;;;13.00;7.30;;;19.40;96.20;;;;;;6226452;28;20061;-85
2022/10/20 09:38:53;;;;;;;10.80;5.57;;;19.30;96.20;;;;;;6227618;28;20053;-84
2022/10/20 09:42:02;;;;;;;12.27;7.05;;;19.40;96.20;;;;;;6226952;28;20049;-84
2022/10/20 09:45:07;;;;;;;15.60;7.10;;;19.50;96.20;;;;;;6227304;28;20046;-84
2022/10/20 09:48:20;;;;;;;10.73;5.82;;;19.50;96.10;;;;;;6227249;28;20053;-84
2022/10/20 09:51:24;;;;;;;13.27;6.20;;;19.50;95.90;;;;;;6212681;28;20509;-84
2022/10/20 09:54:28;;;;;;;12.07;6.30;;;19.60;95.90;;;;;;6221396;28;20046;-84
2022/10/20 09:57:31;;;;;;;9.73;5.35;;;19.70;95.90;;;;;;6201427;28;20508;-84
2022/10/20 10:00:36;;;;;;;9.45;4.90;;;19.90;95.80;;;;;;6207737;28;20046;-85
2022/10/20 10:03:39;;;;;;;14.98;5.32;;;20.10;95.70;;;;;;6230092;28;20038;-84
2022/10/20 10:06:43;;;;;;;9.85;5.63;;;20.20;95.50;;;;;;6229666;28;20050;-84
2022/10/20 10:09:51;;;;;;;13.60;5.13;;;20.20;95.30;;;;;;6226181;28;20718;-84
2022/10/20 10:12:54;;;;;;;8.70;5.40;;;20.30;95.20;;;;;;6226196;28;20041;-85
2022/10/20 10:16:01;;;;;;;12.88;6.20;;;20.50;95.20;;;;;;6227388;28;20041;-85
2022/10/20 10:19:04;;;;;;;7.72;5.03;;;20.70;94.80;;;;;;6219408;28;20050;-84
2022/10/20 10:22:07;;;;;;;13.82;5.65;;;20.90;94.50;;;;;;6209879;28;20419;-84
2022/10/20 10:25:17;;;;;;;11.38;6.13;;;20.70;94.30;;;;;;6203609;28;20046;-84
2022/10/20 10:28:30;;;;;;;7.38;4.68;;;20.60;94.30;;;;;;6209085;28;20046;-84
2022/10/20 10:31:32;;;;;;;7.20;4.53;;;20.10;94.70;;;;;;6201690;28;20058;-84
2022/10/20 10:35:03;;;;;;;10.55;4.82;;;19.80;95.10;;;;;;6202524;28;20050;-84
2022/10/20 10:38:04;;;;;;;7.40;5.00;;;19.40;95.50;;;;;;6207214;28;20052;-84
2022/10/20 10:41:20;;;;;;;9.55;4.95;;;19.20;96.10;;;;;;6201779;28;20055;-84
2022/10/20 10:44:37;;;;;;;14.50;5.97;;;18.70;96.60;;;;;;6201602;28;20057;-84
2022/10/20 10:48:10;;;;;;;13.70;5.35;;;18.40;97.10;;;;;;6200890;28;20518;-84
2022/10/20 10:51:21;;;;;;;9.93;5.70;;;18.40;97.60;;;;;;6213165;28;20046;-84
2022/10/20 10:54:41;;;;;;;11.55;4.40;;;18.60;97.70;;;;;;6226140;28;20050;-84
2022/10/20 10:57:55;;;;;;;16.20;5.18;;;18.90;97.70;;;;;;6224742;28;20419;-84
2022/10/20 11:01:03;;;;;;;10.32;4.80;;;19.10;97.60;;;;;;6225374;28;20056;-86
2022/10/20 11:04:12;;;;;;;;;;;19.40;97.40;;;;;;6227625;28;20418;-85
2022/10/20 11:07:24;;;;;;;13.65;4.53;;;19.50;97.10;;;;;;6225382;28;20390;-86
2022/10/20 11:10:35;;;;;;;10.77;5.25;;;19.30;96.90;;;;;;6227918;28;20060;-83
2022/10/20 11:13:42;;;;;;;8.23;5.10;;;19.10;97.10;;;;;;6230032;28;20061;-84
2022/10/20 11:16:53;;;;;;;10.45;6.60;;;19.00;97.50;;;;;;6231436;28;20045;-83
2022/10/20 11:20:10;;;;;;;15.88;6.60;;;19.10;97.50;;;;;;6221188;28;20046;-84
2022/10/20 11:23:53;;;;;;;12.48;6.53;;;19.30;97.50;;;;;;6224030;28;20053;-84
2022/10/20 11:27:01;;;;;;;8.57;5.13;;;19.30;97.30;;;;;;6128723;29;20058;-84
2022/10/20 11:30:14;;;;;;;11.73;4.40;;;19.50;97.20;;;;;;6127967;28;20052;-84
2022/10/20 11:33:22;;;;;;;9.00;4.45;;;19.60;97.10;;;;;;6225356;28;20046;-84
2022/10/20 11:36:29;;;;;;;7.45;4.63;;;19.70;97.10;;;;;;6226095;28;20046;-84
2022/10/20 11:39:37;;;;;;;8.17;4.80;;;19.80;97.00;;;;;;6225305;28;20050;-84
2022/10/20 11:42:44;;;;;;;13.57;4.43;;;19.60;96.90;;;;;;6224992;28;20318;-84
2022/10/20 11:45:53;;;;;;;11.68;4.68;;;19.30;97.10;;;;;;6225482;28;20526;-84
2022/10/20 11:48:55;;;;;;;8.10;4.50;;;19.10;97.40;;;;;;6219898;28;20053;-84
2022/10/20 11:52:30;;;;;;;8.70;4.47;;;19.00;97.50;;;;;;6217966;28;20052;-84
2022/10/20 11:55:54;;;;;;;11.43;4.50;;;19.00;97.70;;;;;;6202754;28;20089;-83
2022/10/20 11:59:27;;;;;;;9.68;5.03;;;19.10;97.60;;;;;;6201466;28;20393;-84
2022/10/20 12:03:04;;;;;;;7.68;4.05;;;19.20;97.60;;;;;;6157846;28;20431;-84
2022/10/20 12:06:48;;;;;;;11.85;4.15;;;19.30;97.40;;;;;;6168051;28;20518;-86
2022/10/20 12:10:09;;;;;;;17.88;4.07;;;19.30;97.40;;;;;;6200009;28;20053;-83
2022/10/20 12:13:31;;;;;;;6.72;3.15;;;19.30;97.30;;;;;;6199462;28;20057;-85
2022/10/20 12:17:05;;;;;;;12.75;3.40;;;19.10;97.30;;;;;;6200344;28;20782;-84
2022/10/20 12:20:48;;;;;;;7.07;3.72;;;19.00;97.60;;;;;;6199159;28;20054;-85
2022/10/20 12:24:04;;;;;;;9.85;3.40;;;19.00;97.70;;;;;;6176001;28;20069;-84
2022/10/20 12:27:28;;;;;;;6.60;3.25;;;19.20;97.80;;;;;;6180793;28;20114;-85
2022/10/20 12:30:44;;;;;;;6.78;3.33;;;19.40;97.70;;;;;;6176257;28;20062;-84
2022/10/20 12:34:22;;;;;;;32.13;8.23;;;19.60;97.50;;;;;;6177226;28;20054;-84
2022/10/20 12:37:28;;;;;;;17.95;5.43;;;19.80;97.40;;;;;;6175243;28;20412;-84
2022/10/20 12:40:33;;;;;;;17.95;8.10;;;19.90;97.30;;;;;;6175330;28;20051;-84
2022/10/20 12:43:48;;;;;;;19.95;6.22;;;19.90;97.20;;;;;;6176932;28;20504;-84
2022/10/20 12:46:55;;;;;;;8.57;3.95;;;20.10;97.20;;;;;;6199832;28;20104;-85
2022/10/20 12:50:00;;;;;;;7.38;3.05;;;20.20;97.00;;;;;;6209314;28;20061;-84
2022/10/20 12:53:19;;;;;;;15.98;4.03;;;19.90;96.80;;;;;;6220291;28;20152;-84
2022/10/20 12:56:22;;;;;;;7.82;4.35;;;19.50;97.20;;;;;;6237485;28;20053;-85
2022/10/20 12:59:46;;;;;;;11.60;3.58;;;19.30;97.70;;;;;;6223128;28;20049;-85
2022/10/20 13:02:51;;;;;;;11.57;3.85;;;19.10;97.90;;;;;;6223148;28;20491;-85
2022/10/20 13:05:52;;;;;;;9.77;5.20;;;19.20;98.30;;;;;;6223101;28;20046;-84
2022/10/20 13:09:22;;;;;;;13.07;6.57;;;19.60;97.90;;;;;;6223336;28;20479;-85
2022/10/20 13:12:27;;;;;;;13.85;5.38;;;19.70;97.70;;;;;;6224668;28;20507;-84
2022/10/20 13:15:34;;;;;;;24.77;14.55;;;20.00;97.40;;;;;;6223595;28;20050;-84
2022/10/20 13:18:44;;;;;;;12.20;7.82;;;20.00;97.20;;;;;;6220338;28;20046;-84
2022/10/20 13:21:46;;;;;;;14.73;8.07;;;20.10;97.00;;;;;;6214793;28;20048;-84
2022/10/20 13:24:48;;;;;;;18.52;8.80;;;20.20;97.00;;;;;;6223318;28;20046;-84
2022/10/20 13:27:50;;;;;;;14.82;6.90;;;20.20;96.90;;;;;;6222939;28;20046;-85
2022/10/20 13:31:19;;;;;;;16.05;6.30;;;20.30;96.90;;;;;;6223322;28;20065;-84
2022/10/20 13:34:26;;;;;;;11.57;6.32;;;20.20;97.00;;;;;;6223528;28;20057;-84
2022/10/20 13:37:43;;;;;;;9.43;6.93;;;20.20;97.10;;;;;;6222705;28;20050;-84
2022/10/20 13:40:55;;;;;;;15.02;5.85;;;20.20;97.00;;;;;;6222322;28;20109;-85
2022/10/20 13:44:06;;;;;;;10.07;5.57;;;20.30;96.90;;;;;;6222690;28;20073;-85
2022/10/20 13:47:38;;;;;;;12.60;6.22;;;20.20;96.80;;;;;;6223747;28;20050;-85
2022/10/20 13:50:42;;;;;;;11.07;6.40;;;20.10;96.90;;;;;;6211067;28;20055;-84
2022/10/20 13:53:47;;;;;;;17.70;6.13;;;20.10;96.80;;;;;;6222251;28;20046;-84
2022/10/20 13:56:51;;;;;;;13.25;5.72;;;20.10;96.80;;;;;;6222968;28;20414;-84
2022/10/20 13:59:58;;;;;;;12.02;5.10;;;20.00;96.80;;;;;;6215281;28;20057;-84
2022/10/20 14:03:03;;;;;;;11.95;5.32;;;20.00;96.80;;;;;;6198669;28;20050;-84
2022/10/20 14:06:05;;;;;;;10.07;5.75;;;20.00;96.90;;;;;;6203505;28;20050;-85
2022/10/20 14:09:14;;;;;;;8.57;4.63;;;20.00;97.00;;;;;;6203682;28;20038;-84
2022/10/20 14:12:22;;;;;;;10.93;5.30;;;19.90;97.10;;;;;;6203170;28;20046;-83
2022/10/20 14:15:29;;;;;;;18.25;6.10;;;19.90;97.10;;;;;;6202911;28;20055;-83
2022/10/20 14:18:37;;;;;;;12.23;5.38;;;19.90;97.10;;;;;;6203146;28;20046;-86
2022/10/20 14:21:40;;;;;;;12.38;5.40;;;19.90;97.20;;;;;;6211776;28;20061;-84
2022/10/20 14:24:44;;;;;;;14.05;5.95;;;19.80;97.20;;;;;;6202624;28;20050;-85
2022/10/20 14:27:47;;;;;;;13.18;5.38;;;19.60;97.30;;;;;;6201698;28;20051;-84
2022/10/20 14:30:50;;;;;;;7.95;4.68;;;19.50;97.50;;;;;;6202700;28;20057;-84
2022/10/20 14:33:53;;;;;;;11.98;5.22;;;19.30;97.60;;;;;;6201998;28;20047;-84
2022/10/20 14:36:56;;;;;;;10.45;5.35;;;19.00;98.00;;;;;;6202365;28;20061;-84
2022/10/20 14:40:00;;;;;;;10.40;5.93;;;18.90;98.30;;;;;;6202792;28;20057;-85
2022/10/20 14:43:06;;;;;;;15.82;5.50;;;18.80;98.40;;;;;;6202887;28;20061;-85
2022/10/20 14:46:10;;;;;;;9.45;4.65;;;18.70;98.70;;;;;;6201696;28;20422;-84
2022/10/20 14:49:15;;;;;;;10.45;4.68;;;18.90;98.80;;;;;;6204761;28;20041;-85
2022/10/20 14:52:22;;;;;;;14.30;4.60;;;18.80;98.80;;;;;;6218096;28;20046;-85
2022/10/20 14:55:41;;;;;;;12.00;4.72;;;18.90;99.00;;;;;;6227019;28;20049;-85
2022/10/20 14:58:57;;;;;;;14.48;5.38;;;18.90;99.10;;;;;;6226682;28;20427;-85
2022/10/20 15:02:07;;;;;;;8.40;4.65;;;19.00;99.00;;;;;;6226468;28;20408;-84
2022/10/20 15:05:29;;;;;;;11.68;5.03;;;18.90;99.00;;;;;;6225729;28;20410;-84
2022/10/20 15:08:31;;;;;;;10.88;5.35;;;19.00;99.40;;;;;;6225916;28;20048;-84
2022/10/20 15:11:33;;;;;;;13.00;4.43;;;19.20;99.50;;;;;;6225384;28;20399;-84
2022/10/20 15:14:35;;;;;;;6.85;4.10;;;19.40;99.60;;;;;;6226366;28;20089;-84
2022/10/20 15:17:38;;;;;;;11.70;5.00;;;19.60;99.50;;;;;;6226030;28;20050;-85
2022/10/20 15:20:43;;;;;;;8.57;4.60;;;19.60;99.30;;;;;;6215452;28;20046;-84
2022/10/20 15:23:44;;;;;;;15.13;5.47;;;19.70;99.20;;;;;;6201918;28;20162;-84
2022/10/20 15:26:46;;;;;;;13.32;4.70;;;19.80;99.20;;;;;;6201822;28;20055;-84
2022/10/20 15:29:49;;;;;;;17.00;5.50;;;19.80;99.20;;;;;;6200318;28;20415;-84
2022/10/20 15:32:52;;;;;;;10.48;5.47;;;19.80;99.20;;;;;;6200569;28;20046;-84
2022/10/20 15:35:59;;;;;;;9.85;4.95;;;19.80;99.20;;;;;;6200952;28;20061;-84
2022/10/20 15:39:01;;;;;;;16.67;5.07;;;19.80;99.20;;;;;;6200749;28;20058;-84
2022/10/20 15:42:04;;;;;;;13.40;5.20;;;19.70;99.10;;;;;;6201457;28;20050;-84
2022/10/20 15:45:14;;;;;;;12.98;4.93;;;19.60;99.30;;;;;;6202440;28;20046;-85
2022/10/20 15:48:17;;;;;;;8.40;4.78;;;19.30;99.40;;;;;;6199788;28;20093;-85
2022/10/20 15:51:24;;;;;;;24.55;7.75;;;19.00;99.70;;;;;;6212132;28;20054;-84
2022/10/20 15:54:26;;;;;;;22.67;8.60;;;18.60;99.90;;;;;;6224486;28;20050;-84
2022/10/20 15:57:27;;;;;;;20.42;7.13;;;18.40;99.90;;;;;;6224102;28;20133;-84
2022/10/20 16:00:29;;;;;;;13.38;6.38;;;18.10;99.90;;;;;;6228167;28;20053;-84
2022/10/20 16:03:31;;;;;;;43.70;18.75;;;18.00;99.90;;;;;;6208866;28;20412;-83
2022/10/20 16:06:34;;;;;;;32.08;14.48;;;17.70;99.90;;;;;;6200594;28;20500;-84